createdAt,value
2018-06-15T00:01:57.105Z,39.37
2018-06-15T00:04:31.488Z,43.47
2018-06-15T00:07:06.368Z,36.97
2018-06-15T00:09:41.311Z,38.30
2018-06-15T00:12:15.880Z,39.03
2018-06-15T00:14:50.592Z,41.57
2018-06-15T00:17:24.832Z,38.67
2018-06-15T00:19:59.953Z,42.60
2018-06-15T00:22:34.879Z,40.97
2018-06-15T00:25:09.913Z,40.83
2018-06-15T00:27:44.552Z,41.97
2018-06-15T00:30:19.544Z,38.70
2018-06-15T00:32:54.260Z,40.17
2018-06-15T00:35:29.584Z,43.57
2018-06-15T00:38:04.160Z,42.70
2018-06-15T00:40:39.244Z,40.37
2018-06-15T00:43:13.992Z,42.13
2018-06-15T00:45:48.981Z,43.03
2018-06-15T00:48:24.502Z,41.60
2018-06-15T00:50:59.664Z,40.60
2018-06-15T00:53:34.877Z,42.90
2018-06-15T00:56:09.697Z,43.53
2018-06-15T00:58:45.114Z,45.67
2018-06-15T01:01:20.212Z,45.37
2018-06-15T01:03:56.221Z,43.93
2018-06-15T01:06:31.460Z,44.03
2018-06-15T01:09:07.773Z,41.83
2018-06-15T01:11:42.256Z,42.30
2018-06-15T01:14:17.464Z,46.90
2018-06-15T01:16:52.270Z,41.80
2018-06-15T01:19:27.593Z,43.20
2018-06-15T01:22:02.217Z,39.20
2018-06-15T01:24:36.833Z,41.43
2018-06-15T01:27:11.994Z,31.63
2018-06-15T01:29:46.969Z,39.80
2018-06-15T01:32:21.447Z,44.43
2018-06-15T01:34:56.688Z,41.50
2018-06-15T01:37:31.203Z,42.70
2018-06-15T01:40:06.293Z,39.17
2018-06-15T01:42:40.753Z,39.67
2018-06-15T01:45:15.837Z,43.33
2018-06-15T01:47:51.110Z,39.10
2018-06-15T01:50:25.908Z,39.33
2018-06-15T01:53:01.226Z,43.07
2018-06-15T01:55:36.504Z,47.37
2018-06-15T01:58:11.407Z,42.63
2018-06-15T02:00:46.768Z,44.63
2018-06-15T02:03:22.068Z,40.47
2018-06-15T02:05:56.893Z,43.27
2018-06-15T02:08:31.665Z,42.20
2018-06-15T02:11:07.015Z,41.57
2018-06-15T02:13:41.905Z,39.00
2018-06-15T02:16:17.151Z,42.50
2018-06-15T02:18:52.445Z,43.40
2018-06-15T02:21:28.513Z,41.40
2018-06-15T02:24:03.052Z,44.40
2018-06-15T02:26:37.917Z,43.23
2018-06-15T02:29:12.977Z,41.00
2018-06-15T02:31:47.792Z,44.10
2018-06-15T02:34:22.320Z,45.17
2018-06-15T02:36:57.112Z,45.60
2018-06-15T02:39:32.420Z,44.10
2018-06-15T02:42:07.742Z,44.83
2018-06-15T02:44:42.758Z,44.60
2018-06-15T02:47:17.398Z,41.30
2018-06-15T02:49:52.280Z,35.80
2018-06-15T02:52:27.003Z,40.37
2018-06-15T02:55:02.317Z,39.30
2018-06-15T02:57:36.965Z,42.10
2018-06-15T03:00:11.509Z,41.00
2018-06-15T03:02:46.467Z,41.00
2018-06-15T03:05:21.401Z,43.90
2018-06-15T03:07:56.172Z,39.73
2018-06-15T03:10:31.168Z,40.27
2018-06-15T03:13:05.996Z,45.93
2018-06-15T03:15:40.896Z,45.87
2018-06-15T03:18:15.657Z,37.67
2018-06-15T03:20:50.220Z,40.37
2018-06-15T03:23:25.777Z,38.40
2018-06-15T03:26:00.541Z,40.20
2018-06-15T03:28:35.317Z,40.87
2018-06-15T03:31:10.330Z,42.07
2018-06-15T03:33:45.145Z,44.03
2018-06-15T03:36:19.996Z,43.10
2018-06-15T03:38:55.018Z,43.07
2018-06-15T03:41:29.965Z,46.77
2018-06-15T03:44:05.301Z,63.83
2018-06-15T03:46:40.232Z,37.90
2018-06-15T03:49:15.387Z,41.90
2018-06-15T03:51:50.838Z,38.30
2018-06-15T03:54:25.392Z,38.80
2018-06-15T03:57:00.584Z,35.23
2018-06-15T03:59:35.247Z,34.93
2018-06-15T04:02:10.155Z,38.20
2018-06-15T04:04:45.288Z,42.20
2018-06-15T04:07:20.567Z,40.93
2018-06-15T04:09:55.639Z,34.63
2018-06-15T04:12:30.802Z,39.20
2018-06-15T04:15:05.657Z,38.70
2018-06-15T04:17:40.958Z,41.73
2018-06-15T04:20:15.161Z,38.60
2018-06-15T04:22:50.057Z,40.27
2018-06-15T04:25:25.163Z,35.03
2018-06-15T04:28:00.400Z,39.63
2018-06-15T04:30:35.212Z,37.03
2018-06-15T04:33:10.376Z,37.93
2018-06-15T04:35:45.401Z,43.70
2018-06-15T04:38:20.253Z,38.90
2018-06-15T04:40:55.172Z,32.43
2018-06-15T04:43:29.705Z,37.27
2018-06-15T04:46:04.707Z,40.00
2018-06-15T04:48:39.172Z,37.33
2018-06-15T04:51:14.063Z,37.27
2018-06-15T04:53:48.812Z,37.90
2018-06-15T04:56:24.313Z,36.83
2018-06-15T04:59:00.152Z,38.33
2018-06-15T05:01:34.798Z,43.70
2018-06-15T05:04:09.797Z,36.00
2018-06-15T05:06:44.406Z,40.20
2018-06-15T05:09:19.429Z,39.20
2018-06-15T05:11:54.055Z,38.57
2018-06-15T05:14:29.001Z,37.10
2018-06-15T05:17:03.240Z,30.13
2018-06-15T05:19:38.393Z,36.67
2018-06-15T05:22:13.065Z,40.00
2018-06-15T05:24:48.005Z,42.67
2018-06-15T05:27:23.137Z,30.53
2018-06-15T05:29:57.688Z,40.20
2018-06-15T05:32:33.241Z,38.73
2018-06-15T05:35:08.533Z,34.47
2018-06-15T05:37:42.881Z,37.27
2018-06-15T05:40:18.434Z,35.20
2018-06-15T05:42:53.357Z,34.17
2018-06-15T05:45:28.344Z,33.37
2018-06-15T05:48:02.889Z,30.37
2018-06-15T05:50:38.157Z,35.90
2018-06-15T05:53:13.369Z,31.17
2018-06-15T05:55:48.321Z,32.13
2018-06-15T05:58:23.192Z,34.33
2018-06-15T06:00:58.242Z,33.37
2018-06-15T06:03:32.763Z,31.33
2018-06-15T06:06:08.017Z,32.80
2018-06-15T06:08:46.217Z,31.60
2018-06-15T06:11:20.751Z,32.13
2018-06-15T06:13:55.629Z,29.60
2018-06-15T06:16:30.169Z,31.03
2018-06-15T06:19:05.624Z,28.40
2018-06-15T06:21:40.144Z,31.10
2018-06-15T06:24:14.708Z,34.23
2018-06-15T06:26:49.465Z,32.10
2018-06-15T06:29:24.548Z,31.93
2018-06-15T06:31:59.509Z,35.80
2018-06-15T06:34:33.966Z,32.80
2018-06-15T06:37:09.199Z,30.90
2018-06-15T06:39:44.363Z,29.70
2018-06-15T06:42:19.409Z,29.73
2018-06-15T06:44:54.412Z,33.00
2018-06-15T06:47:29.274Z,31.20
2018-06-15T06:50:04.161Z,28.63
2018-06-15T06:52:38.949Z,30.20
2018-06-15T06:55:14.141Z,25.63
2018-06-15T06:57:49.644Z,27.40
2018-06-15T07:00:24.873Z,28.83
2018-06-15T07:02:59.813Z,29.37
2018-06-15T07:05:34.879Z,27.47
2018-06-15T07:08:09.566Z,27.20
2018-06-15T07:10:44.744Z,29.17
2018-06-15T07:13:19.280Z,25.67
2018-06-15T07:15:54.007Z,27.63
2018-06-15T07:18:28.701Z,25.10
2018-06-15T07:21:03.794Z,26.03
2018-06-15T07:23:38.245Z,27.23
2018-06-15T07:26:13.414Z,28.47
2018-06-15T07:28:48.016Z,24.77
2018-06-15T07:31:22.846Z,27.23
2018-06-15T07:33:57.882Z,28.17
2018-06-15T07:36:32.596Z,27.03
2018-06-15T07:39:08.624Z,26.50
2018-06-15T07:41:43.454Z,28.57
2018-06-15T07:44:18.017Z,28.93
2018-06-15T07:46:53.077Z,25.23
2018-06-15T07:49:28.009Z,31.00
2018-06-15T07:52:03.329Z,24.70
2018-06-15T07:54:38.287Z,25.10
2018-06-15T07:57:13.054Z,24.57
2018-06-15T07:59:47.478Z,26.70
2018-06-15T08:02:22.257Z,28.13
2018-06-15T08:04:57.377Z,23.27
2018-06-15T08:07:32.323Z,20.43
2018-06-15T08:10:07.572Z,20.30
2018-06-15T08:12:42.653Z,21.70
2018-06-15T08:15:17.650Z,21.77
2018-06-15T08:17:52.582Z,19.73
2018-06-15T08:20:27.777Z,19.07
2018-06-15T08:23:02.246Z,16.87
2018-06-15T08:25:37.069Z,16.17
2018-06-15T08:28:12.013Z,18.83
2018-06-15T08:30:46.754Z,18.40
2018-06-15T08:33:21.792Z,18.83
2018-06-15T08:35:57.058Z,18.17
2018-06-15T08:38:31.864Z,20.50
2018-06-15T08:41:06.649Z,20.37
2018-06-15T08:43:41.408Z,18.23
2018-06-15T08:46:16.749Z,17.90
2018-06-15T08:48:51.920Z,17.80
2018-06-15T08:51:27.057Z,17.50
2018-06-15T08:54:01.930Z,17.67
2018-06-15T08:56:36.980Z,17.73
2018-06-15T08:59:11.840Z,18.63
2018-06-15T09:01:46.866Z,18.80
2018-06-15T09:04:21.511Z,17.70
2018-06-15T09:06:56.600Z,19.67
2018-06-15T09:09:31.880Z,18.90
2018-06-15T09:12:06.957Z,17.17
2018-06-15T09:14:42.210Z,18.20
2018-06-15T09:17:17.405Z,19.07
2018-06-15T09:19:52.621Z,18.27
2018-06-15T09:22:27.292Z,16.30
2018-06-15T09:25:02.609Z,15.73
2018-06-15T09:27:37.297Z,15.37
2018-06-15T09:30:12.173Z,17.43
2018-06-15T09:32:46.713Z,17.03
2018-06-15T09:35:21.735Z,15.70
2018-06-15T09:37:56.193Z,16.40
2018-06-15T09:40:31.249Z,17.37
2018-06-15T09:43:06.045Z,14.63
2018-06-15T09:45:40.450Z,14.00
2018-06-15T09:48:15.401Z,12.03
2018-06-15T09:50:50.684Z,15.80
2018-06-15T09:53:25.421Z,16.60
2018-06-15T09:56:00.375Z,15.47
2018-06-15T09:58:35.153Z,14.53
2018-06-15T10:01:11.192Z,16.20
2018-06-15T10:03:46.034Z,13.07
2018-06-15T10:06:20.729Z,14.00
2018-06-15T10:08:55.765Z,12.27
2018-06-15T10:11:30.927Z,11.87
2018-06-15T10:14:05.841Z,12.13
2018-06-15T10:16:41.576Z,12.37
2018-06-15T10:19:17.197Z,12.77
2018-06-15T10:21:51.788Z,12.50
2018-06-15T10:24:27.136Z,13.67
2018-06-15T10:27:01.807Z,17.73
2018-06-15T10:29:36.654Z,15.40
2018-06-15T10:32:11.896Z,11.77
2018-06-15T10:34:46.929Z,9.73
2018-06-15T10:37:21.954Z,11.90
2018-06-15T10:39:57.338Z,13.10
2018-06-15T10:42:31.824Z,11.60
2018-06-15T10:45:07.009Z,10.07
2018-06-15T10:47:41.974Z,9.70
2018-06-15T10:50:17.253Z,9.60
2018-06-15T10:52:51.843Z,11.27
2018-06-15T10:55:26.595Z,19.50
2018-06-15T10:58:01.485Z,9.60
2018-06-15T11:00:36.422Z,12.87
2018-06-15T11:03:11.076Z,10.80
2018-06-15T11:05:46.293Z,12.63
2018-06-15T11:08:21.216Z,10.63
2018-06-15T11:10:56.215Z,10.20
2018-06-15T11:13:31.022Z,13.20
2018-06-15T11:16:06.449Z,10.80
2018-06-15T11:18:41.117Z,11.60
2018-06-15T11:21:16.181Z,10.50
2018-06-15T11:23:51.266Z,11.40
2018-06-15T11:26:26.393Z,9.00
2018-06-15T11:29:01.325Z,9.60
2018-06-15T11:31:35.912Z,8.83
2018-06-15T11:34:10.939Z,9.27
2018-06-15T11:36:46.164Z,7.53
2018-06-15T11:39:20.765Z,8.10
2018-06-15T11:41:55.404Z,9.07
2018-06-15T11:44:30.785Z,9.27
2018-06-15T11:47:05.577Z,6.10
2018-06-15T11:49:40.937Z,6.03
2018-06-15T11:52:16.348Z,6.27
2018-06-15T11:54:51.371Z,5.60
2018-06-15T11:57:26.402Z,5.93
2018-06-15T12:00:01.402Z,4.80
2018-06-15T12:02:36.275Z,6.93
2018-06-15T12:05:11.070Z,7.73
2018-06-15T12:07:45.764Z,7.17
2018-06-15T12:10:21.177Z,7.90
2018-06-15T12:12:55.858Z,6.17
2018-06-15T12:15:31.002Z,7.47
2018-06-15T12:18:06.502Z,8.33
2018-06-15T12:20:41.689Z,7.80
2018-06-15T12:23:16.700Z,8.17
2018-06-15T12:25:51.386Z,9.37
2018-06-15T12:28:25.609Z,8.30
2018-06-15T12:31:00.268Z,6.40
2018-06-15T12:33:35.316Z,8.47
2018-06-15T12:36:10.629Z,6.40
2018-06-15T12:38:45.289Z,8.00
2018-06-15T12:41:19.943Z,7.60
2018-06-15T12:43:54.825Z,7.23
2018-06-15T12:46:29.852Z,9.13
2018-06-15T12:49:05.517Z,6.80
2018-06-15T12:51:40.476Z,7.50
2018-06-15T12:54:15.176Z,10.93
2018-06-15T12:56:49.900Z,7.50
2018-06-15T12:59:25.053Z,6.80
2018-06-15T13:01:59.669Z,7.03
2018-06-15T13:04:34.885Z,7.10
2018-06-15T13:07:10.164Z,6.50
2018-06-15T13:09:44.669Z,6.63
2018-06-15T13:12:19.746Z,7.47
2018-06-15T13:14:54.189Z,6.30
2018-06-15T13:17:29.550Z,7.37
2018-06-15T13:20:04.036Z,6.33
2018-06-15T13:22:39.371Z,7.30
2018-06-15T13:25:14.121Z,5.47
2018-06-15T13:27:49.140Z,6.37
2018-06-15T13:30:24.801Z,8.13
2018-06-15T13:32:59.220Z,5.63
2018-06-15T13:35:34.333Z,6.60
2018-06-15T13:38:09.373Z,5.50
2018-06-15T13:40:44.047Z,6.57
2018-06-15T13:43:19.407Z,7.83
2018-06-15T13:45:54.165Z,7.33
2018-06-15T13:48:29.437Z,7.23
2018-06-15T13:51:04.768Z,8.07
2018-06-15T13:53:41.990Z,7.50
2018-06-15T13:56:17.540Z,7.33
2018-06-15T13:58:52.445Z,7.57
2018-06-15T14:01:27.316Z,7.47
2018-06-15T14:04:02.677Z,7.63
2018-06-15T14:06:37.528Z,8.50
2018-06-15T14:09:12.622Z,8.37
2018-06-15T14:11:47.462Z,6.43
2018-06-15T14:14:22.260Z,6.77
2018-06-15T14:16:57.481Z,9.00
2018-06-15T14:19:32.378Z,9.53
2018-06-15T14:22:07.216Z,7.83
2018-06-15T14:24:42.344Z,7.00
2018-06-15T14:27:16.769Z,7.27
2018-06-15T14:29:51.740Z,6.17
2018-06-15T14:32:26.678Z,7.00
2018-06-15T14:35:02.062Z,7.67
2018-06-15T14:37:37.314Z,6.50
2018-06-15T14:40:12.265Z,5.93
2018-06-15T14:42:46.541Z,6.57
2018-06-15T14:45:21.477Z,6.90
2018-06-15T14:47:56.510Z,8.27
2018-06-15T14:50:31.640Z,8.93
2018-06-15T14:53:06.632Z,7.67
2018-06-15T14:55:42.263Z,8.37
2018-06-15T14:58:16.482Z,7.70
2018-06-15T15:00:51.485Z,7.80
2018-06-15T15:03:26.050Z,8.37
2018-06-15T15:06:00.851Z,6.40
2018-06-15T15:08:35.914Z,6.97
2018-06-15T15:11:10.710Z,7.63
2018-06-15T15:13:46.212Z,8.20
2018-06-15T15:16:21.209Z,6.40
2018-06-15T15:18:56.259Z,10.63
2018-06-15T15:21:31.705Z,6.83
2018-06-15T15:24:06.881Z,10.57
2018-06-15T15:26:41.988Z,6.67
2018-06-15T15:29:16.883Z,8.53
2018-06-15T15:31:51.741Z,7.63
2018-06-15T15:34:26.925Z,7.97
2018-06-15T15:37:01.839Z,7.33
2018-06-15T15:39:36.954Z,7.20
2018-06-15T15:42:11.939Z,7.60
2018-06-15T15:44:47.041Z,7.93
2018-06-15T15:47:21.422Z,7.83
2018-06-15T15:49:56.443Z,7.93
2018-06-15T15:52:30.888Z,8.53
2018-06-15T15:55:05.813Z,6.73
2018-06-15T15:57:41.781Z,7.50
2018-06-15T16:00:16.217Z,7.77
2018-06-15T16:02:51.700Z,7.10
2018-06-15T16:05:26.862Z,7.13
2018-06-15T16:08:01.414Z,7.37
2018-06-15T16:10:36.239Z,10.00
2018-06-15T16:13:11.827Z,7.33
2018-06-15T16:15:46.425Z,7.40
2018-06-15T16:18:21.451Z,6.60
2018-06-15T16:20:56.192Z,6.60
2018-06-15T16:23:31.681Z,6.27
2018-06-15T16:26:06.817Z,7.77
2018-06-15T16:28:41.582Z,7.10
2018-06-15T16:31:16.564Z,13.33
2018-06-15T16:33:51.698Z,7.03
2018-06-15T16:36:27.028Z,8.03
2018-06-15T16:39:01.396Z,6.80
2018-06-15T16:41:37.457Z,8.10
2018-06-15T16:44:12.025Z,8.83
2018-06-15T16:46:47.077Z,7.17
2018-06-15T16:49:21.649Z,7.33
2018-06-15T16:51:56.498Z,7.83
2018-06-15T16:54:31.664Z,6.97
2018-06-15T16:57:07.048Z,9.83
2018-06-15T16:59:42.093Z,7.63
2018-06-15T17:02:17.350Z,9.03
2018-06-15T17:04:52.097Z,8.03
2018-06-15T17:07:27.657Z,8.20
2018-06-15T17:10:02.178Z,9.00
2018-06-15T17:12:37.001Z,8.40
2018-06-15T17:15:11.674Z,8.27
2018-06-15T17:17:46.281Z,8.10
2018-06-15T17:20:21.436Z,7.57
2018-06-15T17:22:56.494Z,8.70
2018-06-15T17:25:31.532Z,9.03
2018-06-15T17:28:06.721Z,8.50
2018-06-15T17:30:41.765Z,7.10
2018-06-15T17:33:16.696Z,6.80
2018-06-15T17:35:51.729Z,7.77
2018-06-15T17:38:26.957Z,7.20
2018-06-15T17:41:01.615Z,7.40
2018-06-15T17:43:36.789Z,7.93
2018-06-15T17:46:12.081Z,10.77
2018-06-15T17:48:48.004Z,7.77
2018-06-15T17:51:23.081Z,7.00
2018-06-15T17:53:57.544Z,6.97
2018-06-15T17:59:28.777Z,6.53
2018-06-15T18:02:03.804Z,7.10
2018-06-15T18:04:38.590Z,7.70
2018-06-15T18:07:14.293Z,7.33
2018-06-15T18:09:49.500Z,6.93
2018-06-15T18:12:24.011Z,7.00
2018-06-15T18:14:58.725Z,7.17
2018-06-15T18:17:33.824Z,8.23
2018-06-15T18:20:08.433Z,7.13
2018-06-15T18:22:43.068Z,6.53
2018-06-15T18:25:17.763Z,9.00
2018-06-15T18:30:32.129Z,10.43
2018-06-15T18:33:07.560Z,9.87
2018-06-15T18:35:42.174Z,10.10
2018-06-15T18:38:17.052Z,10.17
2018-06-15T18:40:51.902Z,11.30
2018-06-15T18:43:26.294Z,8.27
2018-06-15T18:46:01.477Z,11.10
2018-06-15T18:48:36.923Z,10.00
2018-06-15T18:51:11.498Z,8.93
2018-06-15T18:53:46.236Z,9.50
2018-06-15T18:56:21.942Z,10.33
2018-06-15T18:58:56.612Z,8.20
2018-06-15T19:01:31.640Z,8.60
2018-06-15T19:04:06.944Z,8.43
2018-06-15T19:06:42.221Z,8.97
2018-06-15T19:09:17.369Z,10.00
2018-06-15T19:11:52.244Z,7.80
2018-06-15T19:14:27.040Z,8.27
2018-06-15T19:17:01.562Z,8.83
2018-06-15T19:19:36.428Z,8.30
2018-06-15T19:22:11.649Z,8.83
2018-06-15T19:24:46.180Z,7.83
2018-06-15T19:27:21.208Z,8.50
2018-06-15T19:29:56.096Z,8.07
2018-06-15T19:32:31.067Z,8.37
2018-06-15T19:35:06.221Z,9.13
2018-06-15T19:37:40.910Z,9.27
2018-06-15T19:40:16.008Z,8.63
2018-06-15T19:42:50.913Z,9.70
2018-06-15T19:45:25.561Z,9.80
2018-06-15T19:48:00.740Z,9.40
2018-06-15T19:50:35.848Z,10.03
2018-06-15T19:53:10.352Z,10.00
2018-06-15T19:55:45.398Z,10.63
2018-06-15T19:58:19.828Z,10.37
2018-06-15T20:00:54.606Z,10.90
2018-06-15T20:03:29.760Z,11.53
2018-06-15T20:06:04.697Z,11.97
2018-06-15T20:08:39.531Z,11.13
2018-06-15T20:11:14.484Z,11.60
2018-06-15T20:13:48.760Z,11.17
2018-06-15T20:16:23.696Z,11.53
2018-06-15T20:18:58.528Z,12.67
2018-06-15T20:21:33.421Z,12.20
2018-06-15T20:24:08.160Z,12.60
2018-06-15T20:26:42.922Z,12.70
2018-06-15T20:29:17.956Z,11.50
2018-06-15T20:31:52.797Z,10.73
2018-06-15T20:34:27.608Z,36.83
2018-06-15T20:37:02.429Z,31.00
2018-06-15T20:39:37.097Z,25.27
2018-06-15T20:42:12.064Z,21.83
2018-06-15T20:44:47.240Z,25.10
2018-06-15T20:47:21.655Z,18.33
2018-06-15T20:49:56.437Z,18.53
2018-06-15T20:52:31.797Z,15.43
2018-06-15T20:55:06.636Z,16.53
2018-06-15T20:57:41.144Z,16.10
2018-06-15T21:00:16.080Z,14.43
2018-06-15T21:02:50.888Z,14.73
2018-06-15T21:05:25.580Z,15.00
2018-06-15T21:08:00.380Z,13.97
2018-06-15T21:10:35.755Z,14.27
2018-06-15T21:13:10.995Z,13.80
2018-06-15T21:15:45.514Z,14.23
2018-06-15T21:18:20.316Z,13.50
2018-06-15T21:20:55.465Z,14.70
2018-06-15T21:23:29.956Z,14.37
2018-06-15T21:26:05.107Z,14.57
2018-06-15T21:28:39.504Z,13.90
2018-06-15T21:31:14.815Z,14.10
2018-06-15T21:33:49.296Z,14.10
2018-06-15T21:36:24.504Z,13.90
2018-06-15T21:38:59.072Z,14.67
2018-06-15T21:41:34.276Z,14.53
2018-06-15T21:44:09.132Z,15.30
2018-06-15T21:46:43.641Z,14.43
2018-06-15T21:49:18.561Z,15.30
2018-06-15T21:51:53.744Z,13.83
2018-06-15T21:54:28.876Z,13.63
2018-06-15T21:57:03.622Z,14.80
2018-06-15T21:59:38.365Z,14.13
2018-06-15T22:02:13.030Z,13.67
2018-06-15T22:04:48.345Z,12.93
2018-06-15T22:07:23.165Z,15.57
2018-06-15T22:09:57.752Z,13.60
2018-06-15T22:12:32.922Z,13.37
2018-06-15T22:15:07.580Z,14.20
2018-06-15T22:17:42.288Z,14.20
2018-06-15T22:20:17.197Z,14.80
2018-06-15T22:22:52.413Z,14.57
2018-06-15T22:25:27.452Z,15.00
2018-06-15T22:28:01.818Z,14.60
2018-06-15T22:30:36.941Z,14.50
2018-06-15T22:33:11.613Z,13.63
2018-06-15T22:35:46.492Z,14.83
2018-06-15T22:38:21.808Z,14.10
2018-06-15T22:40:56.180Z,14.33
2018-06-15T22:43:31.089Z,13.73
2018-06-15T22:46:06.356Z,14.27
2018-06-15T22:48:40.768Z,15.00
2018-06-15T22:51:16.132Z,15.70
2018-06-15T22:53:50.369Z,15.47
2018-06-15T22:56:26.256Z,14.90
2018-06-15T22:59:01.208Z,15.97
2018-06-15T23:01:36.184Z,14.50
2018-06-15T23:04:10.657Z,15.43
2018-06-15T23:06:45.716Z,15.23
2018-06-15T23:09:20.208Z,14.90
2018-06-15T23:11:55.189Z,15.90
2018-06-15T23:14:30.328Z,16.17
2018-06-15T23:17:04.844Z,15.80
2018-06-15T23:19:39.560Z,14.17
2018-06-15T23:22:14.374Z,14.80
2018-06-15T23:24:49.212Z,17.13
2018-06-15T23:27:24.249Z,14.73
2018-06-15T23:29:59.133Z,14.27
2018-06-15T23:32:34.192Z,16.10
2018-06-15T23:35:09.277Z,14.20
2018-06-15T23:37:43.849Z,15.30
2018-06-15T23:40:19.251Z,14.63
2018-06-15T23:42:53.729Z,14.30
2018-06-15T23:45:28.928Z,16.90
2018-06-15T23:48:03.517Z,14.93
2018-06-15T23:50:38.696Z,14.90
2018-06-15T23:53:13.390Z,14.97
2018-06-15T23:55:47.952Z,14.83
2018-06-15T23:58:23.120Z,14.23
